메인 페이지
METAR-TAF:

METAR-TAF

공항 :

그란카나리아 섬, 스페인

위도: 27-56N, 경도: 015-23W, 고도: 23m

현재 날씨관측

예보는 37분 전, 04:00시(UTC)에 발표되었습니다.
9kt
온도 18°C
습도 73%
기압 1016 hPa
시정 10km 이상
고도 3000ft 상공 구름 조금

METAR: GCLP 220400Z 01009KT 9999 FEW030 18/13 Q1016 NOSIG

시각: 05:37 (04:37 UTC)

예보

예보는 2 시간 37분 전, 02:00시(UTC)에 발표되었습니다.
예보 대상 시간: 22일 03시부터 23일 03시까지 (UTC)
12kt
시정 10km 이상
고도 3000ft 상공 구름 조금
확률 30% :
일시적
22일 12시부터 22일 15시까지 (UTC)
15kt, 순간 최대 풍속 25kt
일시적
22일 14시부터 22일 20시까지 (UTC)
남동6kt

TAF: GCLP 220200Z 2203/2303 35012KT 9999 FEW030 TX23/2214Z TN16/2205Z PROB30 TEMPO 2212/2215 01015G25KT TEMPO 2214/2220 14006KT

4,000개 이상의 공항 관측 자료 및 예보 (METAR 및 TAF 보고).

지도상에서 검색 가능한 기상관측소가 노란 점과 빨간 점으로 표시되어 있습니다.

기상관측소 명을 보려면 표시 위로 마우스를 이동하세요.

날씨 관측과 예보를 보려면 클릭하세요.

지도 변경 : 확대하려면 엑스 표시가 있는 녹색 버튼, 축소하려면 빼기 표시가 있는 녹색 버튼, 다음 페이지의 지도를 보려면 녹색 화살표를 클릭하세요.


METAR-TAF: